sensor_id;sensor_type;location;lat;lon;timestamp;P1;durP1;ratioP1;P2;durP2;ratioP2
32427;SDS011;18882;50.952;4.366;2023-04-25T00:01:11;13.75;;;2.72;;
32427;SDS011;18882;50.952;4.366;2023-04-25T00:03:38;12.40;;;2.63;;
32427;SDS011;18882;50.952;4.366;2023-04-25T00:06:04;9.30;;;2.63;;
32427;SDS011;18882;50.952;4.366;2023-04-25T00:08:30;12.73;;;2.97;;
32427;SDS011;18882;50.952;4.366;2023-04-25T00:10:56;13.25;;;3.10;;
32427;SDS011;18882;50.952;4.366;2023-04-25T00:13:22;11.93;;;2.72;;
32427;SDS011;18882;50.952;4.366;2023-04-25T00:15:50;8.13;;;2.40;;
32427;SDS011;18882;50.952;4.366;2023-04-25T00:18:16;11.48;;;2.20;;
32427;SDS011;18882;50.952;4.366;2023-04-25T00:20:42;6.60;;;2.63;;
32427;SDS011;18882;50.952;4.366;2023-04-25T00:23:11;18.23;;;3.97;;
32427;SDS011;18882;50.952;4.366;2023-04-25T00:25:43;18.65;;;2.95;;
32427;SDS011;18882;50.952;4.366;2023-04-25T00:28:09;14.02;;;3.38;;
32427;SDS011;18882;50.952;4.366;2023-04-25T00:30:36;10.90;;;2.58;;
32427;SDS011;18882;50.952;4.366;2023-04-25T00:33:01;12.15;;;2.53;;
32427;SDS011;18882;50.952;4.366;2023-04-25T00:35:27;10.27;;;2.47;;
32427;SDS011;18882;50.952;4.366;2023-04-25T00:37:53;10.18;;;2.72;;
32427;SDS011;18882;50.952;4.366;2023-04-25T00:40:20;16.35;;;3.00;;
32427;SDS011;18882;50.952;4.366;2023-04-25T00:42:46;6.53;;;3.08;;
32427;SDS011;18882;50.952;4.366;2023-04-25T00:45:13;12.95;;;3.00;;
32427;SDS011;18882;50.952;4.366;2023-04-25T00:47:42;23.45;;;3.60;;
32427;SDS011;18882;50.952;4.366;2023-04-25T00:50:08;13.98;;;3.10;;
32427;SDS011;18882;50.952;4.366;2023-04-25T00:52:34;14.32;;;2.88;;
32427;SDS011;18882;50.952;4.366;2023-04-25T00:55:05;12.00;;;3.25;;
32427;SDS011;18882;50.952;4.366;2023-04-25T00:57:31;17.52;;;3.42;;
32427;SDS011;18882;50.952;4.366;2023-04-25T00:59:57;11.45;;;3.28;;
32427;SDS011;18882;50.952;4.366;2023-04-25T01:02:26;19.50;;;3.10;;
32427;SDS011;18882;50.952;4.366;2023-04-25T01:04:52;15.43;;;3.03;;
32427;SDS011;18882;50.952;4.366;2023-04-25T01:07:18;12.77;;;3.20;;
32427;SDS011;18882;50.952;4.366;2023-04-25T01:09:44;10.70;;;3.15;;
32427;SDS011;18882;50.952;4.366;2023-04-25T01:12:11;10.38;;;3.03;;
32427;SDS011;18882;50.952;4.366;2023-04-25T01:14:37;17.92;;;3.42;;
32427;SDS011;18882;50.952;4.366;2023-04-25T01:17:03;13.88;;;3.67;;
32427;SDS011;18882;50.952;4.366;2023-04-25T01:19:29;15.75;;;3.40;;
32427;SDS011;18882;50.952;4.366;2023-04-25T01:21:55;15.57;;;3.08;;
32427;SDS011;18882;50.952;4.366;2023-04-25T01:24:21;18.27;;;3.70;;
32427;SDS011;18882;50.952;4.366;2023-04-25T01:26:47;11.52;;;3.53;;
32427;SDS011;18882;50.952;4.366;2023-04-25T01:29:18;15.38;;;2.50;;
32427;SDS011;18882;50.952;4.366;2023-04-25T01:31:45;12.80;;;3.45;;
32427;SDS011;18882;50.952;4.366;2023-04-25T01:34:12;18.20;;;2.80;;
32427;SDS011;18882;50.952;4.366;2023-04-25T01:36:38;11.95;;;2.92;;
32427;SDS011;18882;50.952;4.366;2023-04-25T01:39:05;8.50;;;2.80;;
32427;SDS011;18882;50.952;4.366;2023-04-25T01:41:31;12.35;;;2.88;;
32427;SDS011;18882;50.952;4.366;2023-04-25T01:43:59;16.05;;;3.20;;
32427;SDS011;18882;50.952;4.366;2023-04-25T01:46:26;15.30;;;2.75;;
32427;SDS011;18882;50.952;4.366;2023-04-25T01:48:52;20.15;;;3.72;;
32427;SDS011;18882;50.952;4.366;2023-04-25T01:51:18;19.35;;;3.13;;
32427;SDS011;18882;50.952;4.366;2023-04-25T01:53:44;14.90;;;3.70;;
32427;SDS011;18882;50.952;4.366;2023-04-25T01:56:10;21.50;;;3.17;;
32427;SDS011;18882;50.952;4.366;2023-04-25T01:58:35;8.50;;;2.53;;
32427;SDS011;18882;50.952;4.366;2023-04-25T02:01:01;10.20;;;3.33;;
32427;SDS011;18882;50.952;4.366;2023-04-25T02:03:27;18.52;;;3.95;;
32427;SDS011;18882;50.952;4.366;2023-04-25T02:05:53;15.68;;;2.38;;
32427;SDS011;18882;50.952;4.366;2023-04-25T02:08:18;16.35;;;3.58;;
32427;SDS011;18882;50.952;4.366;2023-04-25T02:10:44;14.13;;;3.13;;
32427;SDS011;18882;50.952;4.366;2023-04-25T02:13:10;11.32;;;3.38;;
32427;SDS011;18882;50.952;4.366;2023-04-25T02:15:35;10.57;;;3.00;;
32427;SDS011;18882;50.952;4.366;2023-04-25T02:18:01;13.93;;;2.83;;
32427;SDS011;18882;50.952;4.366;2023-04-25T02:20:27;10.60;;;3.38;;
32427;SDS011;18882;50.952;4.366;2023-04-25T02:22:55;11.00;;;2.85;;
32427;SDS011;18882;50.952;4.366;2023-04-25T02:25:21;20.23;;;4.00;;
32427;SDS011;18882;50.952;4.366;2023-04-25T02:27:47;17.02;;;2.75;;
32427;SDS011;18882;50.952;4.366;2023-04-25T02:30:13;12.90;;;3.10;;
32427;SDS011;18882;50.952;4.366;2023-04-25T02:32:39;14.20;;;3.00;;
32427;SDS011;18882;50.952;4.366;2023-04-25T02:35:05;11.23;;;2.58;;
32427;SDS011;18882;50.952;4.366;2023-04-25T02:37:32;11.90;;;2.72;;
32427;SDS011;18882;50.952;4.366;2023-04-25T02:39:58;12.65;;;3.38;;
32427;SDS011;18882;50.952;4.366;2023-04-25T02:42:24;22.00;;;3.15;;
32427;SDS011;18882;50.952;4.366;2023-04-25T02:44:50;19.75;;;3.13;;
32427;SDS011;18882;50.952;4.366;2023-04-25T02:47:15;14.57;;;2.85;;
32427;SDS011;18882;50.952;4.366;2023-04-25T02:49:41;11.30;;;2.95;;
32427;SDS011;18882;50.952;4.366;2023-04-25T02:52:07;20.35;;;3.80;;
32427;SDS011;18882;50.952;4.366;2023-04-25T02:54:32;15.30;;;3.17;;
32427;SDS011;18882;50.952;4.366;2023-04-25T02:56:58;12.57;;;3.53;;
32427;SDS011;18882;50.952;4.366;2023-04-25T02:59:24;19.00;;;2.97;;
32427;SDS011;18882;50.952;4.366;2023-04-25T03:01:49;13.45;;;2.83;;
32427;SDS011;18882;50.952;4.366;2023-04-25T03:04:15;14.68;;;3.08;;
32427;SDS011;18882;50.952;4.366;2023-04-25T03:06:41;20.00;;;2.92;;
32427;SDS011;18882;50.952;4.366;2023-04-25T03:09:07;18.67;;;3.28;;
32427;SDS011;18882;50.952;4.366;2023-04-25T03:11:32;14.75;;;2.90;;
32427;SDS011;18882;50.952;4.366;2023-04-25T03:13:58;12.27;;;3.95;;
32427;SDS011;18882;50.952;4.366;2023-04-25T03:16:24;17.58;;;2.88;;
32427;SDS011;18882;50.952;4.366;2023-04-25T03:18:50;7.28;;;3.05;;
32427;SDS011;18882;50.952;4.366;2023-04-25T03:21:16;9.85;;;2.42;;
32427;SDS011;18882;50.952;4.366;2023-04-25T03:23:42;22.63;;;3.45;;
32427;SDS011;18882;50.952;4.366;2023-04-25T03:26:07;10.00;;;2.70;;
32427;SDS011;18882;50.952;4.366;2023-04-25T03:28:33;16.27;;;3.13;;
32427;SDS011;18882;50.952;4.366;2023-04-25T03:30:59;12.63;;;3.20;;
32427;SDS011;18882;50.952;4.366;2023-04-25T03:33:24;12.98;;;2.70;;
32427;SDS011;18882;50.952;4.366;2023-04-25T03:35:50;11.45;;;2.45;;
32427;SDS011;18882;50.952;4.366;2023-04-25T03:38:16;7.20;;;2.58;;
32427;SDS011;18882;50.952;4.366;2023-04-25T03:40:42;13.02;;;2.58;;
32427;SDS011;18882;50.952;4.366;2023-04-25T03:43:08;16.45;;;3.10;;
32427;SDS011;18882;50.952;4.366;2023-04-25T03:45:34;13.98;;;2.42;;
32427;SDS011;18882;50.952;4.366;2023-04-25T03:47:59;18.33;;;2.92;;
32427;SDS011;18882;50.952;4.366;2023-04-25T03:50:25;22.67;;;3.88;;
32427;SDS011;18882;50.952;4.366;2023-04-25T03:52:51;15.45;;;3.63;;
32427;SDS011;18882;50.952;4.366;2023-04-25T03:55:16;9.73;;;2.95;;
32427;SDS011;18882;50.952;4.366;2023-04-25T03:57:42;14.40;;;2.58;;
32427;SDS011;18882;50.952;4.366;2023-04-25T04:00:08;17.75;;;3.90;;
32427;SDS011;18882;50.952;4.366;2023-04-25T04:02:34;14.75;;;3.05;;
32427;SDS011;18882;50.952;4.366;2023-04-25T04:05:01;11.45;;;2.65;;
32427;SDS011;18882;50.952;4.366;2023-04-25T04:07:27;12.30;;;3.83;;
32427;SDS011;18882;50.952;4.366;2023-04-25T04:09:53;17.33;;;3.28;;
32427;SDS011;18882;50.952;4.366;2023-04-25T04:12:19;15.05;;;3.25;;
32427;SDS011;18882;50.952;4.366;2023-04-25T04:14:44;7.93;;;3.40;;
32427;SDS011;18882;50.952;4.366;2023-04-25T04:17:10;19.40;;;3.28;;
32427;SDS011;18882;50.952;4.366;2023-04-25T04:19:36;18.58;;;3.28;;
32427;SDS011;18882;50.952;4.366;2023-04-25T04:22:02;15.40;;;3.08;;
32427;SDS011;18882;50.952;4.366;2023-04-25T04:24:27;19.25;;;3.40;;
32427;SDS011;18882;50.952;4.366;2023-04-25T04:26:53;13.35;;;2.97;;
32427;SDS011;18882;50.952;4.366;2023-04-25T04:29:19;16.23;;;3.63;;
32427;SDS011;18882;50.952;4.366;2023-04-25T04:31:49;13.35;;;3.28;;
32427;SDS011;18882;50.952;4.366;2023-04-25T04:34:19;21.05;;;3.75;;
32427;SDS011;18882;50.952;4.366;2023-04-25T04:36:45;18.65;;;2.85;;
32427;SDS011;18882;50.952;4.366;2023-04-25T04:39:11;15.35;;;2.83;;
32427;SDS011;18882;50.952;4.366;2023-04-25T04:41:37;8.77;;;2.35;;
32427;SDS011;18882;50.952;4.366;2023-04-25T04:44:04;6.18;;;2.60;;
32427;SDS011;18882;50.952;4.366;2023-04-25T04:46:31;12.82;;;3.25;;
32427;SDS011;18882;50.952;4.366;2023-04-25T04:49:03;9.13;;;2.78;;
32427;SDS011;18882;50.952;4.366;2023-04-25T04:51:31;8.65;;;2.20;;
32427;SDS011;18882;50.952;4.366;2023-04-25T04:53:58;6.05;;;2.53;;
32427;SDS011;18882;50.952;4.366;2023-04-25T04:56:27;10.20;;;2.85;;
32427;SDS011;18882;50.952;4.366;2023-04-25T04:58:57;15.60;;;2.92;;
32427;SDS011;18882;50.952;4.366;2023-04-25T05:01:23;8.00;;;2.67;;
32427;SDS011;18882;50.952;4.366;2023-04-25T05:03:49;11.30;;;2.78;;
32427;SDS011;18882;50.952;4.366;2023-04-25T05:06:16;16.60;;;2.78;;
32427;SDS011;18882;50.952;4.366;2023-04-25T05:08:43;9.63;;;2.67;;
32427;SDS011;18882;50.952;4.366;2023-04-25T05:11:08;15.85;;;3.33;;
32427;SDS011;18882;50.952;4.366;2023-04-25T05:13:34;11.30;;;3.03;;
32427;SDS011;18882;50.952;4.366;2023-04-25T05:16:00;6.55;;;2.50;;
32427;SDS011;18882;50.952;4.366;2023-04-25T05:18:26;10.60;;;3.13;;
32427;SDS011;18882;50.952;4.366;2023-04-25T05:20:51;12.75;;;2.90;;
32427;SDS011;18882;50.952;4.366;2023-04-25T05:23:18;11.95;;;3.03;;
32427;SDS011;18882;50.952;4.366;2023-04-25T05:25:44;14.10;;;3.50;;
32427;SDS011;18882;50.952;4.366;2023-04-25T05:28:10;11.80;;;3.58;;
32427;SDS011;18882;50.952;4.366;2023-04-25T05:30:37;14.07;;;3.83;;
32427;SDS011;18882;50.952;4.366;2023-04-25T05:33:03;18.73;;;4.05;;
32427;SDS011;18882;50.952;4.366;2023-04-25T05:35:29;11.75;;;3.35;;
32427;SDS011;18882;50.952;4.366;2023-04-25T05:37:55;12.30;;;3.50;;
32427;SDS011;18882;50.952;4.366;2023-04-25T05:40:20;14.93;;;3.20;;
32427;SDS011;18882;50.952;4.366;2023-04-25T05:42:49;15.05;;;3.80;;
32427;SDS011;18882;50.952;4.366;2023-04-25T05:45:16;17.88;;;3.72;;
32427;SDS011;18882;50.952;4.366;2023-04-25T05:47:42;9.52;;;2.95;;
32427;SDS011;18882;50.952;4.366;2023-04-25T05:50:08;9.77;;;3.28;;
32427;SDS011;18882;50.952;4.366;2023-04-25T05:52:34;12.63;;;3.25;;
32427;SDS011;18882;50.952;4.366;2023-04-25T05:54:59;19.67;;;3.47;;
32427;SDS011;18882;50.952;4.366;2023-04-25T05:57:26;6.25;;;2.80;;
32427;SDS011;18882;50.952;4.366;2023-04-25T05:59:52;8.75;;;3.08;;
32427;SDS011;18882;50.952;4.366;2023-04-25T06:02:22;9.88;;;3.63;;
32427;SDS011;18882;50.952;4.366;2023-04-25T06:04:51;12.45;;;3.10;;
32427;SDS011;18882;50.952;4.366;2023-04-25T06:07:32;9.88;;;2.70;;
32427;SDS011;18882;50.952;4.366;2023-04-25T06:09:58;2.90;;;2.15;;
32427;SDS011;18882;50.952;4.366;2023-04-25T06:12:25;9.70;;;2.90;;
32427;SDS011;18882;50.952;4.366;2023-04-25T06:14:51;9.35;;;2.90;;
32427;SDS011;18882;50.952;4.366;2023-04-25T06:17:17;15.02;;;2.80;;
32427;SDS011;18882;50.952;4.366;2023-04-25T06:19:42;7.03;;;2.55;;
32427;SDS011;18882;50.952;4.366;2023-04-25T06:22:08;6.55;;;2.00;;
32427;SDS011;18882;50.952;4.366;2023-04-25T06:24:34;11.30;;;2.25;;
32427;SDS011;18882;50.952;4.366;2023-04-25T06:27:00;11.77;;;2.90;;
32427;SDS011;18882;50.952;4.366;2023-04-25T06:29:26;18.25;;;2.88;;
32427;SDS011;18882;50.952;4.366;2023-04-25T06:31:51;6.88;;;2.25;;
32427;SDS011;18882;50.952;4.366;2023-04-25T06:34:17;17.83;;;2.70;;
32427;SDS011;18882;50.952;4.366;2023-04-25T06:36:43;12.40;;;2.33;;
32427;SDS011;18882;50.952;4.366;2023-04-25T06:39:09;12.10;;;2.40;;
32427;SDS011;18882;50.952;4.366;2023-04-25T06:41:35;13.43;;;2.55;;
32427;SDS011;18882;50.952;4.366;2023-04-25T06:44:01;8.32;;;2.53;;
32427;SDS011;18882;50.952;4.366;2023-04-25T06:46:27;11.60;;;2.67;;
32427;SDS011;18882;50.952;4.366;2023-04-25T06:48:52;12.07;;;2.40;;
32427;SDS011;18882;50.952;4.366;2023-04-25T06:51:18;15.98;;;2.67;;
32427;SDS011;18882;50.952;4.366;2023-04-25T06:53:44;7.68;;;2.58;;
32427;SDS011;18882;50.952;4.366;2023-04-25T06:56:09;11.65;;;2.20;;
32427;SDS011;18882;50.952;4.366;2023-04-25T06:58:35;11.60;;;2.17;;
32427;SDS011;18882;50.952;4.366;2023-04-25T07:01:01;9.93;;;2.40;;
32427;SDS011;18882;50.952;4.366;2023-04-25T07:03:27;7.25;;;1.80;;
32427;SDS011;18882;50.952;4.366;2023-04-25T07:05:52;6.57;;;1.83;;
32427;SDS011;18882;50.952;4.366;2023-04-25T07:08:18;12.95;;;1.90;;
32427;SDS011;18882;50.952;4.366;2023-04-25T07:10:44;7.72;;;1.98;;
32427;SDS011;18882;50.952;4.366;2023-04-25T07:13:11;11.32;;;2.15;;
32427;SDS011;18882;50.952;4.366;2023-04-25T07:15:36;8.90;;;2.00;;
32427;SDS011;18882;50.952;4.366;2023-04-25T07:18:02;4.10;;;1.20;;
32427;SDS011;18882;50.952;4.366;2023-04-25T07:20:28;4.32;;;1.23;;
32427;SDS011;18882;50.952;4.366;2023-04-25T07:22:55;5.90;;;1.35;;
32427;SDS011;18882;50.952;4.366;2023-04-25T07:25:22;12.00;;;1.75;;
32427;SDS011;18882;50.952;4.366;2023-04-25T07:27:47;13.02;;;2.00;;
32427;SDS011;18882;50.952;4.366;2023-04-25T07:30:13;10.90;;;1.58;;
32427;SDS011;18882;50.952;4.366;2023-04-25T07:32:39;6.38;;;1.20;;
32427;SDS011;18882;50.952;4.366;2023-04-25T07:35:05;5.72;;;1.88;;
32427;SDS011;18882;50.952;4.366;2023-04-25T07:37:32;12.02;;;1.75;;
32427;SDS011;18882;50.952;4.366;2023-04-25T07:39:58;10.55;;;1.42;;
32427;SDS011;18882;50.952;4.366;2023-04-25T07:42:24;7.05;;;1.48;;
32427;SDS011;18882;50.952;4.366;2023-04-25T07:44:50;8.15;;;1.80;;
32427;SDS011;18882;50.952;4.366;2023-04-25T07:47:16;8.40;;;1.48;;
32427;SDS011;18882;50.952;4.366;2023-04-25T07:49:44;6.18;;;1.40;;
32427;SDS011;18882;50.952;4.366;2023-04-25T07:52:10;9.07;;;1.73;;
32427;SDS011;18882;50.952;4.366;2023-04-25T07:54:36;6.68;;;1.88;;
32427;SDS011;18882;50.952;4.366;2023-04-25T07:57:02;7.15;;;1.27;;
32427;SDS011;18882;50.952;4.366;2023-04-25T07:59:28;6.70;;;1.75;;
32427;SDS011;18882;50.952;4.366;2023-04-25T08:01:54;12.02;;;1.70;;
32427;SDS011;18882;50.952;4.366;2023-04-25T08:04:20;9.60;;;1.45;;
32427;SDS011;18882;50.952;4.366;2023-04-25T08:06:45;7.60;;;1.40;;
32427;SDS011;18882;50.952;4.366;2023-04-25T08:09:11;6.75;;;1.92;;
32427;SDS011;18882;50.952;4.366;2023-04-25T08:11:37;2.47;;;1.10;;
32427;SDS011;18882;50.952;4.366;2023-04-25T08:14:03;6.38;;;1.15;;
32427;SDS011;18882;50.952;4.366;2023-04-25T08:16:28;7.80;;;1.52;;
32427;SDS011;18882;50.952;4.366;2023-04-25T08:18:55;7.20;;;1.60;;
32427;SDS011;18882;50.952;4.366;2023-04-25T08:21:20;8.07;;;2.15;;
32427;SDS011;18882;50.952;4.366;2023-04-25T08:23:46;4.32;;;1.58;;
32427;SDS011;18882;50.952;4.366;2023-04-25T08:26:12;6.85;;;1.42;;
32427;SDS011;18882;50.952;4.366;2023-04-25T08:28:38;8.07;;;1.08;;
32427;SDS011;18882;50.952;4.366;2023-04-25T08:31:03;6.45;;;1.67;;
32427;SDS011;18882;50.952;4.366;2023-04-25T08:33:29;3.13;;;0.98;;
32427;SDS011;18882;50.952;4.366;2023-04-25T08:35:56;5.72;;;1.23;;
32427;SDS011;18882;50.952;4.366;2023-04-25T08:38:22;4.90;;;0.90;;
32427;SDS011;18882;50.952;4.366;2023-04-25T08:40:51;3.55;;;0.75;;
32427;SDS011;18882;50.952;4.366;2023-04-25T08:43:18;8.70;;;1.15;;
32427;SDS011;18882;50.952;4.366;2023-04-25T08:45:44;7.72;;;1.40;;
32427;SDS011;18882;50.952;4.366;2023-04-25T08:48:11;6.88;;;1.08;;
32427;SDS011;18882;50.952;4.366;2023-04-25T08:50:47;7.22;;;1.30;;
32427;SDS011;18882;50.952;4.366;2023-04-25T08:53:16;7.63;;;0.90;;
32427;SDS011;18882;50.952;4.366;2023-04-25T08:55:46;5.80;;;1.08;;
32427;SDS011;18882;50.952;4.366;2023-04-25T08:58:13;10.40;;;1.30;;
32427;SDS011;18882;50.952;4.366;2023-04-25T09:00:40;4.60;;;1.05;;
32427;SDS011;18882;50.952;4.366;2023-04-25T09:03:06;10.63;;;1.23;;
32427;SDS011;18882;50.952;4.366;2023-04-25T09:05:32;7.00;;;1.27;;
32427;SDS011;18882;50.952;4.366;2023-04-25T09:07:59;6.10;;;1.10;;
32427;SDS011;18882;50.952;4.366;2023-04-25T09:10:25;5.50;;;1.23;;
32427;SDS011;18882;50.952;4.366;2023-04-25T09:15:34;4.85;;;0.90;;
32427;SDS011;18882;50.952;4.366;2023-04-25T09:18:29;4.57;;;0.93;;
32427;SDS011;18882;50.952;4.366;2023-04-25T09:20:58;5.32;;;0.80;;
32427;SDS011;18882;50.952;4.366;2023-04-25T09:23:31;3.80;;;0.80;;
32427;SDS011;18882;50.952;4.366;2023-04-25T09:26:08;5.95;;;0.90;;
32427;SDS011;18882;50.952;4.366;2023-04-25T09:28:34;5.68;;;1.30;;
32427;SDS011;18882;50.952;4.366;2023-04-25T09:31:01;9.70;;;0.98;;
32427;SDS011;18882;50.952;4.366;2023-04-25T09:33:32;4.53;;;0.80;;
32427;SDS011;18882;50.952;4.366;2023-04-25T09:36:05;4.40;;;0.68;;
32427;SDS011;18882;50.952;4.366;2023-04-25T09:38:43;9.20;;;0.98;;
32427;SDS011;18882;50.952;4.366;2023-04-25T09:41:10;8.10;;;0.85;;
32427;SDS011;18882;50.952;4.366;2023-04-25T09:43:37;4.32;;;0.85;;
32427;SDS011;18882;50.952;4.366;2023-04-25T09:46:07;3.10;;;0.73;;
32427;SDS011;18882;50.952;4.366;2023-04-25T09:48:34;4.45;;;0.70;;
32427;SDS011;18882;50.952;4.366;2023-04-25T09:51:10;5.50;;;0.82;;
32427;SDS011;18882;50.952;4.366;2023-04-25T09:53:41;8.57;;;1.25;;
32427;SDS011;18882;50.952;4.366;2023-04-25T09:56:12;3.85;;;0.77;;
32427;SDS011;18882;50.952;4.366;2023-04-25T09:58:39;5.82;;;1.33;;
32427;SDS011;18882;50.952;4.366;2023-04-25T10:01:06;2.20;;;0.82;;
32427;SDS011;18882;50.952;4.366;2023-04-25T10:03:34;6.05;;;0.70;;
32427;SDS011;18882;50.952;4.366;2023-04-25T10:06:02;5.65;;;0.60;;
32427;SDS011;18882;50.952;4.366;2023-04-25T10:08:33;3.22;;;0.50;;
32427;SDS011;18882;50.952;4.366;2023-04-25T10:11:01;2.35;;;0.50;;
32427;SDS011;18882;50.952;4.366;2023-04-25T10:13:32;3.00;;;0.68;;
32427;SDS011;18882;50.952;4.366;2023-04-25T10:16:00;4.10;;;0.55;;
32427;SDS011;18882;50.952;4.366;2023-04-25T10:18:30;2.85;;;0.60;;
32427;SDS011;18882;50.952;4.366;2023-04-25T10:20:58;2.38;;;1.00;;
32427;SDS011;18882;50.952;4.366;2023-04-25T10:23:28;3.47;;;0.98;;
32427;SDS011;18882;50.952;4.366;2023-04-25T10:25:55;2.00;;;0.65;;
32427;SDS011;18882;50.952;4.366;2023-04-25T10:28:21;2.33;;;0.60;;
32427;SDS011;18882;50.952;4.366;2023-04-25T10:30:57;3.35;;;0.60;;
32427;SDS011;18882;50.952;4.366;2023-04-25T10:33:37;4.32;;;0.65;;
32427;SDS011;18882;50.952;4.366;2023-04-25T10:36:11;3.65;;;0.68;;
32427;SDS011;18882;50.952;4.366;2023-04-25T10:38:39;4.03;;;0.60;;
32427;SDS011;18882;50.952;4.366;2023-04-25T10:41:05;3.38;;;1.05;;
32427;SDS011;18882;50.952;4.366;2023-04-25T10:46:02;3.20;;;0.68;;
32427;SDS011;18882;50.952;4.366;2023-04-25T10:48:50;6.70;;;1.40;;
32427;SDS011;18882;50.952;4.366;2023-04-25T10:51:22;4.30;;;0.75;;
32427;SDS011;18882;50.952;4.366;2023-04-25T10:54:02;4.82;;;0.65;;
32427;SDS011;18882;50.952;4.366;2023-04-25T10:56:33;4.47;;;0.50;;
32427;SDS011;18882;50.952;4.366;2023-04-25T10:59:11;1.48;;;0.70;;
32427;SDS011;18882;50.952;4.366;2023-04-25T11:01:44;9.35;;;0.90;;
32427;SDS011;18882;50.952;4.366;2023-04-25T11:04:24;8.55;;;0.70;;
32427;SDS011;18882;50.952;4.366;2023-04-25T11:09:47;7.78;;;1.02;;
32427;SDS011;18882;50.952;4.366;2023-04-25T11:12:14;4.35;;;0.60;;
32427;SDS011;18882;50.952;4.366;2023-04-25T11:14:41;3.17;;;0.68;;
32427;SDS011;18882;50.952;4.366;2023-04-25T11:17:07;9.05;;;0.90;;
32427;SDS011;18882;50.952;4.366;2023-04-25T11:19:32;4.70;;;0.70;;
32427;SDS011;18882;50.952;4.366;2023-04-25T11:21:59;5.57;;;1.02;;
32427;SDS011;18882;50.952;4.366;2023-04-25T11:24:32;5.55;;;0.60;;
32427;SDS011;18882;50.952;4.366;2023-04-25T11:26:59;6.78;;;0.90;;
32427;SDS011;18882;50.952;4.366;2023-04-25T11:29:30;6.10;;;1.35;;
32427;SDS011;18882;50.952;4.366;2023-04-25T11:31:56;7.82;;;0.90;;
32427;SDS011;18882;50.952;4.366;2023-04-25T11:34:26;3.75;;;0.60;;
32427;SDS011;18882;50.952;4.366;2023-04-25T11:36:55;2.80;;;0.80;;
32427;SDS011;18882;50.952;4.366;2023-04-25T11:39:21;4.95;;;0.50;;
32427;SDS011;18882;50.952;4.366;2023-04-25T11:41:49;4.75;;;1.10;;
32427;SDS011;18882;50.952;4.366;2023-04-25T11:44:16;7.60;;;0.70;;
32427;SDS011;18882;50.952;4.366;2023-04-25T11:46:43;4.35;;;0.98;;
32427;SDS011;18882;50.952;4.366;2023-04-25T11:49:09;1.83;;;0.50;;
32427;SDS011;18882;50.952;4.366;2023-04-25T11:51:39;2.97;;;0.63;;
32427;SDS011;18882;50.952;4.366;2023-04-25T11:54:09;5.25;;;0.60;;
32427;SDS011;18882;50.952;4.366;2023-04-25T11:56:43;3.08;;;0.80;;
32427;SDS011;18882;50.952;4.366;2023-04-25T11:59:09;2.60;;;0.30;;
32427;SDS011;18882;50.952;4.366;2023-04-25T12:01:37;2.35;;;0.55;;
32427;SDS011;18882;50.952;4.366;2023-04-25T12:04:14;6.45;;;0.63;;
32427;SDS011;18882;50.952;4.366;2023-04-25T12:06:40;5.93;;;0.60;;
32427;SDS011;18882;50.952;4.366;2023-04-25T12:09:08;1.05;;;0.40;;
32427;SDS011;18882;50.952;4.366;2023-04-25T12:11:42;1.52;;;0.50;;
32427;SDS011;18882;50.952;4.366;2023-04-25T12:14:19;4.07;;;0.50;;
32427;SDS011;18882;50.952;4.366;2023-04-25T12:16:48;2.05;;;0.70;;
32427;SDS011;18882;50.952;4.366;2023-04-25T12:19:16;2.00;;;0.43;;
32427;SDS011;18882;50.952;4.366;2023-04-25T12:21:43;3.95;;;0.40;;
32427;SDS011;18882;50.952;4.366;2023-04-25T12:24:17;1.45;;;0.57;;
32427;SDS011;18882;50.952;4.366;2023-04-25T12:26:49;2.35;;;0.63;;
32427;SDS011;18882;50.952;4.366;2023-04-25T12:29:20;2.50;;;0.30;;
32427;SDS011;18882;50.952;4.366;2023-04-25T12:31:50;3.97;;;0.43;;
32427;SDS011;18882;50.952;4.366;2023-04-25T12:34:17;1.90;;;0.43;;
32427;SDS011;18882;50.952;4.366;2023-04-25T12:36:43;4.13;;;0.30;;
32427;SDS011;18882;50.952;4.366;2023-04-25T12:39:16;3.53;;;0.32;;
32427;SDS011;18882;50.952;4.366;2023-04-25T12:41:43;1.98;;;0.50;;
32427;SDS011;18882;50.952;4.366;2023-04-25T12:44:09;4.28;;;0.52;;
32427;SDS011;18882;50.952;4.366;2023-04-25T12:46:36;5.13;;;0.80;;
32427;SDS011;18882;50.952;4.366;2023-04-25T12:49:02;3.33;;;0.90;;
32427;SDS011;18882;50.952;4.366;2023-04-25T12:51:29;4.30;;;0.80;;
32427;SDS011;18882;50.952;4.366;2023-04-25T12:53:54;12.55;;;1.10;;
32427;SDS011;18882;50.952;4.366;2023-04-25T12:56:20;1.25;;;0.90;;
32427;SDS011;18882;50.952;4.366;2023-04-25T12:58:46;2.25;;;0.73;;
32427;SDS011;18882;50.952;4.366;2023-04-25T13:01:13;8.38;;;1.70;;
32427;SDS011;18882;50.952;4.366;2023-04-25T13:03:39;4.70;;;0.50;;
32427;SDS011;18882;50.952;4.366;2023-04-25T13:06:08;5.78;;;0.75;;
32427;SDS011;18882;50.952;4.366;2023-04-25T13:08:34;1.85;;;0.57;;
32427;SDS011;18882;50.952;4.366;2023-04-25T13:11:02;4.13;;;0.70;;
32427;SDS011;18882;50.952;4.366;2023-04-25T13:13:28;1.35;;;0.55;;
32427;SDS011;18882;50.952;4.366;2023-04-25T13:15:54;1.67;;;0.45;;
32427;SDS011;18882;50.952;4.366;2023-04-25T13:18:20;2.22;;;0.52;;
32427;SDS011;18882;50.952;4.366;2023-04-25T13:20:46;2.13;;;0.25;;
32427;SDS011;18882;50.952;4.366;2023-04-25T13:23:12;1.95;;;0.47;;
32427;SDS011;18882;50.952;4.366;2023-04-25T13:25:37;4.03;;;0.55;;
32427;SDS011;18882;50.952;4.366;2023-04-25T13:28:03;5.38;;;0.43;;
32427;SDS011;18882;50.952;4.366;2023-04-25T13:30:29;3.83;;;0.40;;
32427;SDS011;18882;50.952;4.366;2023-04-25T13:32:55;2.90;;;0.50;;
32427;SDS011;18882;50.952;4.366;2023-04-25T13:35:22;4.75;;;0.57;;
32427;SDS011;18882;50.952;4.366;2023-04-25T13:37:48;3.17;;;0.32;;
32427;SDS011;18882;50.952;4.366;2023-04-25T13:40:13;0.85;;;0.55;;
32427;SDS011;18882;50.952;4.366;2023-04-25T13:42:39;3.58;;;0.50;;
32427;SDS011;18882;50.952;4.366;2023-04-25T13:45:06;1.23;;;0.60;;
32427;SDS011;18882;50.952;4.366;2023-04-25T13:47:32;8.98;;;1.00;;
32427;SDS011;18882;50.952;4.366;2023-04-25T13:49:58;2.00;;;0.55;;
32427;SDS011;18882;50.952;4.366;2023-04-25T13:52:24;2.78;;;0.38;;
32427;SDS011;18882;50.952;4.366;2023-04-25T13:54:50;4.35;;;0.40;;
32427;SDS011;18882;50.952;4.366;2023-04-25T13:57:17;4.30;;;0.50;;
32427;SDS011;18882;50.952;4.366;2023-04-25T13:59:43;2.97;;;0.80;;
32427;SDS011;18882;50.952;4.366;2023-04-25T14:02:08;2.95;;;0.43;;
32427;SDS011;18882;50.952;4.366;2023-04-25T14:04:35;2.03;;;0.32;;
32427;SDS011;18882;50.952;4.366;2023-04-25T14:07:00;2.15;;;0.40;;
32427;SDS011;18882;50.952;4.366;2023-04-25T14:09:27;5.28;;;0.60;;
32427;SDS011;18882;50.952;4.366;2023-04-25T14:11:53;1.55;;;0.40;;
32427;SDS011;18882;50.952;4.366;2023-04-25T14:14:20;3.15;;;0.40;;
32427;SDS011;18882;50.952;4.366;2023-04-25T14:16:47;3.50;;;0.40;;
32427;SDS011;18882;50.952;4.366;2023-04-25T14:19:14;4.13;;;1.02;;
32427;SDS011;18882;50.952;4.366;2023-04-25T14:21:40;3.63;;;0.90;;
32427;SDS011;18882;50.952;4.366;2023-04-25T14:24:06;2.85;;;0.47;;
32427;SDS011;18882;50.952;4.366;2023-04-25T14:26:35;2.55;;;0.60;;
32427;SDS011;18882;50.952;4.366;2023-04-25T14:29:01;3.92;;;0.65;;
32427;SDS011;18882;50.952;4.366;2023-04-25T14:31:26;4.57;;;0.88;;
32427;SDS011;18882;50.952;4.366;2023-04-25T14:33:52;3.00;;;0.60;;
32427;SDS011;18882;50.952;4.366;2023-04-25T14:36:18;5.53;;;0.45;;
32427;SDS011;18882;50.952;4.366;2023-04-25T14:38:44;2.25;;;0.50;;
32427;SDS011;18882;50.952;4.366;2023-04-25T14:41:10;4.00;;;0.40;;
32427;SDS011;18882;50.952;4.366;2023-04-25T14:43:36;4.03;;;0.65;;
32427;SDS011;18882;50.952;4.366;2023-04-25T14:46:02;5.45;;;0.60;;
32427;SDS011;18882;50.952;4.366;2023-04-25T14:48:28;4.03;;;0.65;;
32427;SDS011;18882;50.952;4.366;2023-04-25T14:50:54;0.63;;;0.40;;